This is the latest recevied weather packets stored in our database for station/object NC4J. If no packets are shown the sender has not sent any weather packets the latest 10 day(s).
| Time | Temp. | Humidity | Pressure | Rain* | Wind** | Luminosity | Snow |
|---|---|---|---|---|---|---|---|
| 1777577755 | 19.44° C | 40% | 1012.1 hPa | 0 mm | - | 713 W/m² | - |
| 1777577452 | 19.44° C | 40% | 1012.2 hPa | 0 mm | - | 529 W/m² | - |
| 1777577150 | 18.89° C | 39% | 1012.2 hPa | 0 mm | - | 144 W/m² | - |
| 1777576846 | 18.89° C | 41% | 1012.2 hPa | 0 mm | - | 199 W/m² | - |
| 1777576544 | 18.89° C | 39% | 1012 hPa | 0 mm | - | 288 W/m² | - |
| 1777576241 | 18.89° C | 39% | 1012.1 hPa | 0 mm | - | 137 W/m² | - |
| 1777575937 | 18.89° C | 39% | 1011.9 hPa | 0 mm | - | 148 W/m² | - |
| 1777575633 | 19.44° C | 38% | 1012.1 hPa | 0 mm | - | 100 W/m² | - |
| 1777575330 | 19.44° C | 43% | 1011.8 hPa | 0 mm | - | 188 W/m² | - |
| 1777575026 | 18.89° C | 43% | 1012.3 hPa | 0 mm | - | 65 W/m² | - |
| 1777574722 | 18.89° C | 42% | 1012.1 hPa | 0 mm | - | 56 W/m² | - |
| 1777574420 | 18.89° C | 44% | 1012.3 hPa | 0 mm | - | 163 W/m² | - |
| 1777574115 | 18.89° C | 45% | 1012.4 hPa | 0 mm | - | 342 W/m² | - |
| 1777573810 | 18.89° C | 42% | 1012.3 hPa | 0 mm | - | 145 W/m² | - |
| 1777573506 | 18.33° C | 47% | 1012.1 hPa | 0 mm | - | 692 W/m² | - |
| 1777573202 | 18.33° C | 42% | 1012.2 hPa | 0 mm | - | 205 W/m² | - |
| 1777572899 | 18.33° C | 46% | 1012.6 hPa | 0 mm | - | 187 W/m² | - |
| 1777572594 | 18.33° C | 44% | 1012.3 hPa | 0 mm | - | 71 W/m² | - |
| 1777572289 | 18.33° C | 46% | 1012.4 hPa | 0 mm | - | 73 W/m² | - |
| 1777571985 | 18.33° C | 45% | 1012.3 hPa | 0 mm | - | 55 W/m² | - |
| 1777571685 | 18.89° C | 46% | 1012.4 hPa | 0 mm | - | 640 W/m² | - |
| 1777571383 | 18.33° C | 45% | 1012.3 hPa | 0 mm | - | 111 W/m² | - |
| 1777571079 | 18.33° C | 47% | 1012.4 hPa | 0 mm | - | 133 W/m² | - |
| 1777570775 | 18.33° C | 46% | 1012.5 hPa | 0 mm | - | 66 W/m² | - |
| 1777570472 | 17.78° C | 49% | 1012.6 hPa | 0 mm | - | 91 W/m² | - |
* Rain latest hour (hover to see other rain measurements)
** Current wind speed in m/s (hover to see current wind gust speed)